Time;durP1;ratioP1;P1;durP2;ratioP2;P2;SDS_P1;SDS_P2;PMS_P1;PMS_P2;Temp;Humidity;BMP_temperature;BMP_pressure;BME280_temperature;BME280_humidity;BME280_pressure;Samples;Min_cycle;Max_cycle;Signal;HPM_P1;HPM_P2
2022/06/15 00:01:23;;;;;;;4.75;2.70;;;;;;;16.81;58.49;101965.13;5027070;28;20061;-54
2022/06/15 00:03:49;;;;;;;6.90;3.00;;;;;;;16.80;58.43;101965.94;5024992;28;20508;-51
2022/06/15 00:06:19;;;;;;;7.78;3.00;;;;;;;16.78;58.93;101966.75;5025678;28;20553;-56
2022/06/15 00:08:47;;;;;;;8.10;3.33;;;;;;;16.67;59.16;101963.03;5023353;28;20040;-55
2022/06/15 00:11:17;;;;;;;5.43;3.17;;;;;;;16.73;58.84;101963.19;5028218;28;20474;-56
2022/06/15 00:13:43;;;;;;;9.05;3.33;;;;;;;16.68;58.95;101959.59;5027767;28;20086;-54
2022/06/15 00:16:08;;;;;;;8.25;3.05;;;;;;;16.65;59.46;101959.53;5007391;28;20060;-57
2022/06/15 00:18:35;;;;;;;7.88;3.40;;;;;;;16.57;59.26;101961.97;5023664;28;20108;-52
2022/06/15 00:21:01;;;;;;;7.88;3.50;;;;;;;16.56;59.75;101968.91;5027964;28;20477;-57
2022/06/15 00:23:28;;;;;;;8.32;3.60;;;;;;;16.57;59.81;101957.66;5022866;28;20041;-52
2022/06/15 00:25:54;;;;;;;7.90;3.60;;;;;;;16.49;59.87;101958.31;5026568;28;20021;-56
2022/06/15 00:28:21;;;;;;;5.78;3.10;;;;;;;16.47;60.16;101965.22;5031754;28;20409;-57
2022/06/15 00:30:51;;;;;;;7.65;3.50;;;;;;;16.47;60.07;101955.69;5025575;28;20028;-56
2022/06/15 00:33:19;;;;;;;5.45;3.05;;;;;;;16.36;60.52;101958.06;5027526;28;20044;-55
2022/06/15 00:35:59;;;;;;;8.05;3.25;;;;;;;16.41;60.18;101950.38;5030104;28;20060;-55
2022/06/15 00:38:27;;;;;;;7.15;3.42;;;;;;;16.34;60.68;101948.50;5028892;28;20048;-54
2022/06/15 00:40:53;;;;;;;6.47;3.13;;;;;;;16.30;60.63;101954.47;5024935;28;20746;-56
2022/06/15 00:43:28;;;;;;;7.15;3.10;;;;;;;16.28;60.94;101949.25;5026509;28;20064;-49
2022/06/15 00:45:54;;;;;;;6.38;3.45;;;;;;;16.25;61.05;101954.34;5026065;28;20141;-50
2022/06/15 00:48:19;;;;;;;5.15;3.10;;;;;;;16.23;61.15;101955.19;5027875;28;20481;-54
2022/06/15 00:50:45;;;;;;;6.82;3.17;;;;;;;16.20;60.92;101952.50;5029158;28;20075;-56
2022/06/15 00:53:11;;;;;;;5.07;3.03;;;;;;;16.14;61.62;101945.47;5025636;28;20037;-53
2022/06/15 00:55:37;;;;;;;7.57;3.20;;;;;;;16.14;61.60;101945.47;5027365;28;20159;-55
2022/06/15 00:58:07;;;;;;;6.85;3.40;;;;;;;16.06;61.89;101944.41;5024509;28;20637;-48
2022/06/15 01:00:33;;;;;;;6.72;3.55;;;;;;;15.99;61.88;101935.59;5029757;28;20032;-56
2022/06/15 01:02:59;;;;;;;5.05;3.00;;;;;;;16.01;62.35;101940.81;5027526;28;20413;-53
2022/06/15 01:05:43;;;;;;;8.15;3.33;;;;;;;16.03;61.89;101936.56;5027045;28;20025;-54
2022/06/15 01:08:17;;;;;;;7.15;3.30;;;;;;;16.00;62.05;101937.34;5026550;28;20132;-56
2022/06/15 01:11:04;;;;;;;9.02;3.22;;;;;;;16.00;61.99;101937.34;5027486;28;20028;-54
2022/06/15 01:13:43;;;;;;;7.72;3.50;;;;;;;15.99;61.41;101935.59;5028142;28;20162;-56
2022/06/15 01:16:16;;;;;;;5.10;3.28;;;;;;;15.96;61.38;101935.56;5024673;28;20033;-55
2022/06/15 01:19:14;;;;;;;7.82;3.40;;;;;;;15.93;61.58;101929.41;5028845;28;20555;-55
2022/06/15 01:21:58;;;;;;;9.48;3.33;;;;;;;15.90;61.35;101932.81;5027044;28;20588;-53
2022/06/15 01:24:52;;;;;;;7.43;3.40;;;;;;;15.87;61.77;101934.47;5009629;28;20524;-50
2022/06/15 01:27:20;;;;;;;6.90;3.70;;;;;;;15.78;62.59;101937.72;5025160;28;20021;-55
2022/06/15 01:29:45;;;;;;;4.87;3.07;;;;;;;15.76;61.83;101937.66;5025337;28;20034;-49
2022/06/15 01:32:23;;;;;;;5.25;2.80;;;;;;;15.77;62.47;101938.53;5022756;28;20302;-52
2022/06/15 01:35:13;;;;;;;8.50;3.22;;;;;;;15.79;61.84;101934.28;5024187;28;20969;-55
2022/06/15 01:37:54;;;;;;;9.63;3.28;;;;;;;15.68;62.75;101926.25;5027377;28;20041;-52
2022/06/15 01:40:28;;;;;;;9.48;3.28;;;;;;;15.71;62.66;101921.16;5024383;28;20018;-52
2022/06/15 01:42:59;;;;;;;10.32;3.30;;;;;;;15.74;62.52;101921.19;5030739;28;20130;-55
2022/06/15 01:45:29;;;;;;;8.05;2.92;;;;;;;15.76;62.65;101929.00;5028407;28;20025;-55
2022/06/15 01:47:58;;;;;;;6.78;3.00;;;;;;;15.64;62.61;101921.81;5032862;28;20036;-55
2022/06/15 01:50:29;;;;;;;6.57;3.08;;;;;;;15.65;63.04;101926.19;5012889;28;20147;-52
2022/06/15 01:53:18;;;;;;;9.07;3.22;;;;;;;15.72;62.54;101929.78;5028151;28;20416;-55
2022/06/15 01:55:52;;;;;;;;;;;;;;;15.89;61.20;101922.38;5029603;28;20136;-54
2022/06/15 01:58:21;;;;;;;4.82;3.00;;;;;;;15.59;62.69;101917.31;5029437;28;19974;-51
2022/06/15 02:00:57;;;;;;;6.25;2.95;;;;;;;15.52;62.81;101922.34;5028649;28;20025;-56
2022/06/15 02:03:35;;;;;;;7.32;2.90;;;;;;;15.53;63.17;101916.34;5031601;28;20500;-57
2022/06/15 02:06:16;;;;;;;8.20;3.25;;;;;;;15.55;62.88;101917.25;5029237;28;20037;-56
2022/06/15 02:08:41;;;;;;;5.47;2.92;;;;;;;15.53;63.28;101913.75;5031590;28;20040;-55
2022/06/15 02:11:07;;;;;;;6.43;2.95;;;;;;;15.47;63.32;101911.03;5030285;28;20044;-56
2022/06/15 02:13:52;;;;;;;7.03;2.75;;;;;;;15.57;62.76;101915.56;5027144;28;20501;-47
2022/06/15 02:16:26;;;;;;;7.10;3.03;;;;;;;15.48;63.52;101910.19;5027757;28;20505;-56
2022/06/15 02:18:54;;;;;;;7.43;2.97;;;;;;;15.41;63.61;101905.69;5030467;28;20473;-56
2022/06/15 02:21:23;;;;;;;9.10;3.28;;;;;;;15.34;63.66;101901.16;5029993;28;20029;-55
2022/06/15 02:23:55;;;;;;;8.20;2.88;;;;;;;15.42;63.42;101896.19;5030586;28;20148;-56
2022/06/15 02:26:29;;;;;;;7.05;2.60;;;;;;;15.43;63.76;101896.22;5031462;28;20025;-52
2022/06/15 02:29:00;;;;;;;6.85;3.03;;;;;;;15.44;63.48;101897.97;5028410;28;20442;-54
2022/06/15 02:31:26;;;;;;;6.35;3.50;;;;;;;15.36;63.64;101896.03;5024266;28;20501;-51
2022/06/15 02:33:54;;;;;;;5.32;2.78;;;;;;;15.32;64.32;101895.06;5026668;28;20840;-51
2022/06/15 02:36:21;;;;;;;9.55;3.10;;;;;;;15.31;64.32;101897.63;5032220;28;20500;-56
2022/06/15 02:38:49;;;;;;;9.75;3.20;;;;;;;15.26;64.39;101894.91;5033792;28;20044;-56
2022/06/15 02:41:17;;;;;;;6.47;3.30;;;;;;;15.20;64.30;101893.06;5013124;28;20498;-50
2022/06/15 02:43:43;;;;;;;5.43;2.90;;;;;;;15.20;64.24;101892.19;5026676;28;20417;-50
2022/06/15 02:46:12;;;;;;;6.30;3.00;;;;;;;15.17;64.63;101897.28;5026340;28;20036;-52
2022/06/15 02:48:38;;;;;;;5.87;2.83;;;;;;;15.19;64.14;101893.03;5029656;28;20037;-56
2022/06/15 02:51:18;;;;;;;6.97;2.97;;;;;;;15.19;64.25;101886.13;5027004;28;20844;-51
2022/06/15 02:53:46;;;;;;;5.22;2.72;;;;;;;15.13;64.87;101895.44;5029986;28;20036;-56
2022/06/15 02:56:14;;;;;;;7.53;3.28;;;;;;;15.03;65.10;101889.16;5029143;28;20477;-48
2022/06/15 02:58:45;;;;;;;6.57;3.10;;;;;;;15.12;64.53;101884.22;5028538;28;20068;-54
2022/06/15 03:01:10;;;;;;;5.18;2.95;;;;;;;15.01;65.11;101891.69;5027434;28;20057;-57
2022/06/15 03:03:37;;;;;;;5.05;3.05;;;;;;;15.03;64.92;101876.19;5026703;28;20037;-54
2022/06/15 03:06:08;;;;;;;6.72;3.60;;;;;;;15.01;65.14;101881.34;5029994;28;20125;-50
2022/06/15 03:08:33;;;;;;;10.75;3.45;;;;;;;14.95;64.90;101878.59;5031219;28;20033;-53
2022/06/15 03:10:58;;;;;;;6.10;3.13;;;;;;;14.94;65.74;101879.44;5029900;28;20029;-48
2022/06/15 03:13:24;;;;;;;7.13;3.22;;;;;;;14.91;65.48;101889.69;5027955;28;20033;-55
2022/06/15 03:15:49;;;;;;;7.82;3.08;;;;;;;14.91;65.89;101889.69;5027756;28;20033;-51
2022/06/15 03:18:15;;;;;;;6.75;3.13;;;;;;;14.91;65.28;101892.28;5026277;28;20064;-52
2022/06/15 03:20:40;;;;;;;10.25;3.33;;;;;;;14.82;65.52;101894.66;5028763;28;20768;-56
2022/06/15 03:23:06;;;;;;;5.47;3.42;;;;;;;14.87;65.60;101884.41;5026578;28;22390;-48
2022/06/15 03:25:33;;;;;;;8.70;3.80;;;;;;;14.81;65.49;101890.31;5027918;28;20033;-55
2022/06/15 03:27:58;;;;;;;6.10;3.10;;;;;;;14.78;65.73;101885.03;5028020;28;20068;-50
2022/06/15 03:30:24;;;;;;;7.30;3.10;;;;;;;14.84;65.62;101894.69;5030458;28;20064;-55
2022/06/15 03:32:49;;;;;;;7.60;3.42;;;;;;;14.73;65.86;101889.19;5026401;28;20040;-52
2022/06/15 03:35:15;;;;;;;12.63;3.38;;;;;;;14.77;65.83;101887.59;5030166;28;20746;-50
2022/06/15 03:37:40;;;;;;;6.38;3.10;;;;;;;14.73;65.69;101882.31;5027530;28;20037;-56
2022/06/15 03:40:08;;;;;;;9.05;3.28;;;;;;;14.69;65.76;101885.66;5010407;28;20057;-55
2022/06/15 03:42:33;;;;;;;8.32;3.35;;;;;;;14.73;65.81;101894.38;5027504;28;20556;-55
2022/06/15 03:44:59;;;;;;;8.43;3.22;;;;;;;14.70;65.60;101891.72;5025784;28;20120;-53
2022/06/15 03:47:24;;;;;;;6.30;3.70;;;;;;;14.75;66.18;101897.91;5023794;28;20039;-54
2022/06/15 03:49:52;;;;;;;7.88;3.25;;;;;;;14.76;65.74;101894.47;5026548;28;20486;-50
2022/06/15 03:52:20;;;;;;;10.02;3.13;;;;;;;14.75;65.86;101896.19;5029912;28;20776;-54
2022/06/15 03:54:46;;;;;;;9.50;3.45;;;;;;;14.65;65.63;101901.06;5024519;28;20608;-50
2022/06/15 03:57:13;;;;;;;7.63;3.13;;;;;;;14.77;65.46;101895.34;5030104;28;20049;-52
2022/06/15 03:59:39;;;;;;;8.57;3.30;;;;;;;14.70;65.71;101899.50;5028447;28;20040;-52
2022/06/15 04:02:05;;;;;;;10.18;3.75;;;;;;;14.68;65.90;101895.97;5023807;28;20399;-51
2022/06/15 04:04:30;;;;;;;7.13;3.50;;;;;;;14.69;65.93;101896.03;5027738;28;20080;-56
2022/06/15 04:06:56;;;;;;;10.38;3.58;;;;;;;14.69;66.18;101898.63;5027719;28;20087;-54
2022/06/15 04:09:22;;;;;;;6.60;3.58;;;;;;;14.68;66.44;101902.03;5027336;28;20041;-55
2022/06/15 04:11:58;;;;;;;9.52;3.60;;;;;;;14.72;66.55;101903.84;5029030;28;20398;-53
2022/06/15 04:14:33;;;;;;;8.23;3.83;;;;;;;14.65;66.60;101901.06;5027459;28;20501;-51
2022/06/15 04:16:59;;;;;;;6.75;3.50;;;;;;;14.66;66.01;101898.50;5028558;28;20405;-51
2022/06/15 04:19:30;;;;;;;7.30;3.85;;;;;;;14.69;66.36;101901.19;5027202;28;20059;-53
2022/06/15 04:21:56;;;;;;;10.85;3.60;;;;;;;14.70;66.41;101900.38;5025663;28;20041;-52
2022/06/15 04:24:24;;;;;;;8.02;3.67;;;;;;;14.65;66.43;101896.75;5026906;28;20024;-55
2022/06/15 04:26:50;;;;;;;8.60;3.87;;;;;;;14.73;66.60;101899.56;5026164;28;20057;-52
2022/06/15 04:29:17;;;;;;;8.68;3.90;;;;;;;14.70;66.71;101900.38;5025084;28;20283;-53
2022/06/15 04:31:43;;;;;;;8.75;4.15;;;;;;;14.75;66.68;101897.91;5028350;28;20564;-55
2022/06/15 04:34:09;;;;;;;10.25;4.25;;;;;;;14.77;66.26;101898.81;5022377;28;20037;-53
2022/06/15 04:36:36;;;;;;;9.98;3.78;;;;;;;14.82;66.11;101897.22;5022113;28;20402;-53
2022/06/15 04:39:02;;;;;;;10.27;4.28;;;;;;;14.76;65.97;101899.66;5027095;28;20036;-54
2022/06/15 04:41:28;;;;;;;8.82;4.30;;;;;;;14.78;65.97;101890.22;5026458;28;20073;-56
2022/06/15 04:43:53;;;;;;;8.00;3.72;;;;;;;14.83;66.06;101896.38;5021453;28;20489;-54
2022/06/15 04:46:19;;;;;;;12.68;4.07;;;;;;;14.79;65.83;101897.13;5025726;28;20104;-56
2022/06/15 04:48:44;;;;;;;7.53;4.53;;;;;;;14.88;66.10;101901.69;5024787;28;20043;-55
2022/06/15 04:51:21;;;;;;;12.80;4.47;;;;;;;14.93;66.32;101898.41;5026333;28;20033;-50
2022/06/15 04:53:48;;;;;;;11.95;4.32;;;;;;;14.94;66.16;101901.88;5021926;28;20433;-55
2022/06/15 04:56:15;;;;;;;9.45;4.00;;;;;;;15.03;65.89;101904.69;5026615;28;20040;-52
2022/06/15 04:58:41;;;;;;;7.95;4.00;;;;;;;15.05;65.95;101910.81;5024889;28;20044;-54
2022/06/15 05:01:08;;;;;;;10.68;4.03;;;;;;;15.10;66.17;101906.59;5026270;28;20163;-55
2022/06/15 05:03:36;;;;;;;8.57;4.50;;;;;;;15.11;65.67;101904.91;5026184;28;20109;-54
2022/06/15 05:06:12;;;;;;;7.85;4.53;;;;;;;15.20;65.22;101898.22;5026479;28;20522;-54
2022/06/15 05:08:38;;;;;;;11.52;4.18;;;;;;;15.20;64.99;101897.34;5027024;28;20592;-53
2022/06/15 05:11:03;;;;;;;7.68;3.88;;;;;;;15.19;65.27;101899.06;5025105;28;20036;-52
2022/06/15 05:13:29;;;;;;;7.45;4.25;;;;;;;15.25;65.06;101895.75;5029711;28;20040;-50
2022/06/15 05:15:55;;;;;;;9.02;4.00;;;;;;;15.29;64.81;101898.47;5023381;28;20037;-54
2022/06/15 05:18:21;;;;;;;8.88;4.28;;;;;;;15.36;64.72;101903.81;5028514;28;20032;-54
2022/06/15 05:20:46;;;;;;;9.23;4.10;;;;;;;15.35;64.19;101891.66;5025100;28;20037;-53
2022/06/15 05:23:16;;;;;;;8.30;4.03;;;;;;;15.37;64.57;101905.56;5019189;28;20039;-53
2022/06/15 05:25:42;;;;;;;11.63;4.43;;;;;;;15.43;65.50;101901.41;5029002;28;20078;-56
2022/06/15 05:28:09;;;;;;;10.88;4.28;;;;;;;15.44;64.23;101903.16;5026975;28;20584;-55
2022/06/15 05:30:36;;;;;;;10.50;4.22;;;;;;;15.45;64.61;101907.50;5028539;28;20525;-52
2022/06/15 05:33:02;;;;;;;8.73;4.43;;;;;;;15.52;64.66;101904.22;5027475;28;20048;-55
2022/06/15 05:35:28;;;;;;;12.75;4.18;;;;;;;15.63;64.68;101908.81;5028382;28;20029;-53
2022/06/15 05:37:53;;;;;;;11.02;4.55;;;;;;;15.72;64.18;101903.88;5026198;28;20059;-55
2022/06/15 05:40:19;;;;;;;8.55;4.95;;;;;;;15.73;64.30;101903.91;5026287;28;20037;-56
2022/06/15 05:42:44;;;;;;;14.07;4.47;;;;;;;15.77;63.28;101904.81;5029141;28;20387;-53
2022/06/15 05:45:10;;;;;;;9.90;4.53;;;;;;;15.83;64.01;101910.16;5026669;28;20033;-52
2022/06/15 05:47:36;;;;;;;8.60;4.75;;;;;;;15.90;63.65;101901.69;5025941;28;20091;-55
2022/06/15 05:50:01;;;;;;;9.50;4.63;;;;;;;15.97;63.33;101907.91;5026965;28;20420;-56
2022/06/15 05:52:26;;;;;;;10.00;4.95;;;;;;;16.03;63.61;101911.50;5027787;28;20040;-53
2022/06/15 05:54:52;;;;;;;8.00;4.57;;;;;;;16.13;63.84;101911.69;5022113;28;20140;-50
2022/06/15 05:57:20;;;;;;;11.80;4.60;;;;;;;16.22;63.04;101907.59;5025807;28;21023;-54
2022/06/15 05:59:48;;;;;;;11.55;4.47;;;;;;;16.33;62.92;101907.81;5026157;28;20040;-49
2022/06/15 06:02:16;;;;;;;11.75;4.38;;;;;;;16.36;61.88;101900.97;5024162;28;20407;-55
2022/06/15 06:04:42;;;;;;;11.00;4.60;;;;;;;16.43;62.39;101904.56;5027806;28;20052;-54
2022/06/15 06:07:09;;;;;;;9.45;4.60;;;;;;;16.49;62.16;101907.28;5027795;28;20405;-54
2022/06/15 06:09:35;;;;;;;9.05;4.57;;;;;;;16.67;62.01;101903.28;5027153;28;20057;-51
2022/06/15 06:12:01;;;;;;;10.30;4.57;;;;;;;16.68;62.25;101902.44;5026632;28;20587;-54
2022/06/15 06:14:26;;;;;;;11.93;5.30;;;;;;;16.74;61.65;101913.84;5027096;28;20561;-50
2022/06/15 06:16:51;;;;;;;13.52;5.45;;;;;;;16.77;61.13;101910.47;5026365;28;20106;-53
2022/06/15 06:19:17;;;;;;;10.35;4.70;;;;;;;16.88;61.48;101906.34;5030392;28;20028;-52
2022/06/15 06:21:43;;;;;;;9.38;4.45;;;;;;;17.01;61.81;101903.13;5029142;28;20124;-54
2022/06/15 06:24:09;;;;;;;6.82;4.30;;;;;;;17.10;61.47;101900.69;5026669;28;20641;-57
2022/06/15 06:26:36;;;;;;;7.85;4.47;;;;;;;17.14;61.95;101901.63;5028469;28;20535;-58
2022/06/15 06:29:03;;;;;;;10.68;4.63;;;;;;;17.27;61.35;101906.19;5032964;28;20051;-54
2022/06/15 06:31:29;;;;;;;11.23;4.45;;;;;;;17.36;61.33;101906.34;5030157;28;20036;-56
2022/06/15 06:33:55;;;;;;;10.80;4.38;;;;;;;17.41;61.21;101907.31;5026232;28;20033;-56
2022/06/15 06:36:48;;;;;;;9.95;4.60;;;;;;;17.55;61.25;101910.13;5036754;28;20039;-56
2022/06/15 06:39:18;;;;;;;10.85;4.22;;;;;;;17.78;60.89;101914.84;5012404;28;20056;-55
2022/06/15 06:41:44;;;;;;;8.55;4.30;;;;;;;17.83;59.65;101914.03;5030157;28;20029;-52
2022/06/15 06:44:11;;;;;;;11.95;4.05;;;;;;;18.02;60.37;101919.50;5026768;28;20025;-56
2022/06/15 06:46:41;;;;;;;9.23;4.22;;;;;;;17.99;59.79;101912.53;5032326;28;20510;-53
2022/06/15 06:49:06;;;;;;;;;;;;;;;18.11;59.73;101907.50;5029470;28;20037;-53
2022/06/15 06:51:34;;;;;;;12.80;4.70;;;;;;;18.31;58.29;101917.31;5031152;28;19916;-55
2022/06/15 06:53:59;;;;;;;10.93;4.35;;;;;;;18.40;58.65;101913.09;5032027;28;20032;-56
2022/06/15 06:56:24;;;;;;;11.30;4.40;;;;;;;18.55;58.09;101917.63;5033890;28;20036;-57
2022/06/15 06:58:50;;;;;;;13.90;4.65;;;;;;;18.62;57.53;101918.56;5030450;28;20045;-57
2022/06/15 07:01:15;;;;;;;8.77;4.45;;;;;;;18.79;57.66;101918.78;5032022;28;20045;-50
2022/06/15 07:03:41;;;;;;;11.07;4.28;;;;;;;18.89;56.39;101921.53;5035109;28;20037;-56
2022/06/15 07:06:09;;;;;;;8.00;4.28;;;;;;;18.97;55.11;101922.47;5037628;28;20029;-56
2022/06/15 07:08:37;;;;;;;10.80;4.07;;;;;;;19.02;54.98;101917.31;5037336;28;20119;-55
2022/06/15 07:11:08;;;;;;;9.10;4.32;;;;;;;19.06;55.41;101916.50;5032638;28;20040;-53
2022/06/15 07:13:33;;;;;;;8.40;3.63;;;;;;;19.20;55.45;101922.69;5032018;28;20029;-50
2022/06/15 07:16:03;;;;;;;8.07;4.20;;;;;;;19.26;55.69;101924.50;5034808;28;20078;-55
2022/06/15 07:18:28;;;;;;;8.20;3.92;;;;;;;19.35;54.69;101926.28;5034714;28;20033;-54
2022/06/15 07:20:53;;;;;;;9.45;3.90;;;;;;;19.48;54.64;101922.94;5029842;28;20075;-55
2022/06/15 07:23:19;;;;;;;11.02;4.03;;;;;;;19.55;54.88;101927.34;5030151;28;20070;-54
2022/06/15 07:25:44;;;;;;;9.68;4.10;;;;;;;19.67;54.89;101927.47;5031371;28;20120;-56
2022/06/15 07:28:10;;;;;;;9.18;4.30;;;;;;;19.71;54.40;101921.41;5031014;28;20042;-54
2022/06/15 07:30:36;;;;;;;9.57;4.20;;;;;;;19.79;53.43;101931.91;5033475;28;20025;-51
2022/06/15 07:33:02;;;;;;;13.10;3.85;;;;;;;19.88;53.08;101923.25;5017130;28;20060;-52
2022/06/15 07:35:31;;;;;;;9.18;4.05;;;;;;;19.91;52.01;101929.38;5035103;28;20489;-53
2022/06/15 07:37:57;;;;;;;6.60;3.75;;;;;;;19.95;52.00;101923.31;5031214;28;20474;-53
2022/06/15 07:40:23;;;;;;;9.23;3.70;;;;;;;20.07;53.81;101928.59;5033990;28;20111;-56
2022/06/15 07:42:50;;;;;;;11.75;3.65;;;;;;;20.19;52.45;101922.56;5031561;28;20481;-55
2022/06/15 07:45:17;;;;;;;8.80;3.47;;;;;;;20.27;53.62;101927.84;5030064;28;20059;-55
2022/06/15 07:50:27;;;;;;;7.30;3.50;;;;;;;20.34;52.25;101927.88;5030456;28;20128;-56
2022/06/15 07:52:54;;;;;;;7.38;3.15;;;;;;;20.43;52.70;101934.88;5031115;28;20112;-55
2022/06/15 07:55:24;;;;;;;8.63;3.47;;;;;;;20.58;52.58;101919.31;5030210;28;20031;-53
2022/06/15 07:57:50;;;;;;;8.88;3.13;;;;;;;20.64;51.67;101925.44;5031142;28;20025;-53
2022/06/15 08:00:17;;;;;;;6.38;2.40;;;;;;;20.69;49.79;101927.19;5018814;28;20025;-55
2022/06/15 08:02:42;;;;;;;8.05;2.70;;;;;;;20.72;50.35;101926.31;5043841;28;20060;-56
2022/06/15 08:05:09;;;;;;;6.50;2.10;;;;;;;20.80;49.80;101933.31;5050537;28;20032;-56
2022/06/15 08:07:35;;;;;;;8.55;2.38;;;;;;;20.92;50.22;101929.84;5050339;28;20462;-50
2022/06/15 08:10:01;;;;;;;8.20;2.90;;;;;;;20.93;48.30;101931.63;5053557;28;20056;-55
2022/06/15 08:12:27;;;;;;;7.78;2.72;;;;;;;20.97;47.66;101924.63;5048171;28;20397;-51
2022/06/15 08:15:00;;;;;;;11.32;2.58;;;;;;;21.00;47.25;101927.28;5051194;28;20044;-53
2022/06/15 08:17:29;;;;;;;9.70;2.33;;;;;;;21.05;46.34;101923.78;5053538;28;20037;-51
2022/06/15 08:19:59;;;;;;;8.15;2.42;;;;;;;21.08;46.29;101925.53;5051433;28;20385;-56
2022/06/15 08:22:26;;;;;;;7.50;2.38;;;;;;;21.15;45.77;101925.53;5047750;28;20040;-54
2022/06/15 08:24:51;;;;;;;6.88;2.40;;;;;;;21.14;45.41;101928.16;5047820;28;20047;-53
2022/06/15 08:27:19;;;;;;;9.38;2.25;;;;;;;21.26;46.58;101928.16;5048173;28;20029;-55
2022/06/15 08:29:47;;;;;;;7.80;2.60;;;;;;;21.31;46.64;101922.97;5049613;28;20155;-54
2022/06/15 08:32:13;;;;;;;6.97;2.53;;;;;;;21.40;46.29;101926.44;5051108;28;20020;-56
2022/06/15 08:34:39;;;;;;;7.18;2.80;;;;;;;21.45;46.19;101928.22;5044987;28;20029;-55
2022/06/15 08:37:11;;;;;;;6.03;2.10;;;;;;;21.54;47.18;101918.63;5042349;28;20048;-56
2022/06/15 08:39:37;;;;;;;9.52;2.80;;;;;;;21.62;46.80;101923.84;5053054;28;20017;-54
2022/06/15 08:42:20;;;;;;;8.77;2.25;;;;;;;21.67;47.43;101914.25;5054643;28;20474;-51
2022/06/15 08:45:06;;;;;;;8.68;2.63;;;;;;;21.67;46.90;101919.47;5046958;28;20115;-50
2022/06/15 08:48:06;;;;;;;9.20;2.70;;;;;;;21.77;46.73;101915.97;5050432;28;20028;-55
2022/06/15 08:50:56;;;;;;;7.18;2.47;;;;;;;21.78;45.80;101917.72;5052018;28;20029;-54
2022/06/15 08:53:30;;;;;;;8.73;2.42;;;;;;;21.88;45.58;101926.41;5053204;28;20062;-51
2022/06/15 08:56:08;;;;;;;8.32;2.38;;;;;;;21.92;45.82;101925.56;5050388;28;20045;-54
2022/06/15 08:58:47;;;;;;;8.23;2.30;;;;;;;21.89;45.16;101922.91;5052757;28;20472;-55
2022/06/15 09:01:38;;;;;;;7.53;2.33;;;;;;;21.95;46.43;101926.41;5052832;28;20104;-55
2022/06/15 09:04:30;;;;;;;7.68;2.70;;;;;;;21.94;43.78;101926.41;5040413;28;20509;-55
2022/06/15 09:07:09;;;;;;;7.32;2.50;;;;;;;21.99;45.06;101911.56;5049864;28;20067;-56
2022/06/15 09:09:57;;;;;;;8.38;2.33;;;;;;;22.02;44.28;101916.78;5052113;28;20107;-55
2022/06/15 09:12:50;;;;;;;7.85;2.80;;;;;;;22.10;44.03;101914.19;5048363;28;20037;-54
2022/06/15 09:15:44;;;;;;;7.47;2.30;;;;;;;22.27;44.94;101911.53;5049539;28;20604;-56
2022/06/15 09:18:20;;;;;;;7.55;2.47;;;;;;;22.26;44.42;101918.47;5048608;28;20028;-50
2022/06/15 09:20:57;;;;;;;7.60;2.22;;;;;;;22.35;44.16;101918.47;5051613;28;20021;-49
2022/06/15 09:23:40;;;;;;;8.13;2.33;;;;;;;22.42;43.90;101928.03;5048375;28;20044;-54
2022/06/15 09:26:11;;;;;;;9.85;2.60;;;;;;;22.48;43.50;101916.66;5055693;28;20572;-56
2022/06/15 09:28:42;;;;;;;6.30;2.20;;;;;;;22.52;43.45;101910.53;5050885;28;20020;-50
2022/06/15 09:31:13;;;;;;;9.15;2.50;;;;;;;22.53;42.44;101920.13;5051958;28;20025;-53
2022/06/15 09:33:52;;;;;;;10.00;2.22;;;;;;;22.52;42.56;101912.28;5048455;28;20074;-56
2022/06/15 09:36:24;;;;;;;10.50;2.08;;;;;;;22.56;42.81;101907.00;5053257;28;20036;-53
2022/06/15 09:38:50;;;;;;;9.45;2.35;;;;;;;22.69;42.80;101910.44;5049253;28;20029;-54
2022/06/15 09:41:29;;;;;;;9.82;2.10;;;;;;;22.80;44.11;101907.75;5048585;28;20087;-56
2022/06/15 09:44:02;;;;;;;8.65;2.47;;;;;;;22.84;42.92;101909.47;5049025;28;20048;-47
2022/06/15 09:46:33;;;;;;;8.48;2.25;;;;;;;22.94;42.20;101906.84;5052162;28;20039;-55
2022/06/15 09:49:31;;;;;;;7.18;2.55;;;;;;;22.98;42.46;101910.28;5046843;28;20515;-48
2022/06/15 09:52:22;;;;;;;7.15;2.05;;;;;;;23.06;42.86;101900.63;5047686;28;20484;-55
2022/06/15 09:55:13;;;;;;;6.90;2.05;;;;;;;23.17;42.42;101911.91;5046442;28;20029;-54
2022/06/15 09:57:40;;;;;;;9.20;2.33;;;;;;;23.23;41.42;101908.34;5043656;28;20497;-52
2022/06/15 10:00:09;;;;;;;6.15;1.90;;;;;;;23.26;41.46;101905.72;5045893;28;20037;-55
2022/06/15 10:02:38;;;;;;;12.02;2.30;;;;;;;23.29;39.88;101905.69;5040922;28;20045;-53
2022/06/15 10:05:05;;;;;;;;;;;;;;;23.37;40.74;101906.50;5031068;28;20021;-53
2022/06/15 10:07:36;;;;;;;5.93;1.90;;;;;;;23.36;40.21;101901.25;5035082;28;19931;-56
2022/06/15 10:10:28;;;;;;;5.38;2.20;;;;;;;23.44;41.08;101900.31;5033919;28;20044;-50
2022/06/15 10:13:17;;;;;;;8.73;2.33;;;;;;;23.53;40.40;101894.97;5029001;28;20024;-51
2022/06/15 10:15:42;;;;;;;5.10;2.13;;;;;;;23.58;40.42;101900.19;5022466;28;20517;-57
2022/06/15 10:18:29;;;;;;;6.78;2.30;;;;;;;23.65;40.62;101895.78;5024319;28;20148;-49
2022/06/15 10:21:07;;;;;;;6.38;2.22;;;;;;;23.68;40.23;101896.63;5026717;28;20388;-50
2022/06/15 10:23:39;;;;;;;10.77;2.60;;;;;;;23.77;39.88;101893.03;5023023;28;20572;-59
2022/06/15 10:26:08;;;;;;;7.82;2.55;;;;;;;23.77;39.82;101901.78;5015579;28;20033;-55
2022/06/15 10:28:40;;;;;;;5.63;2.00;;;;;;;23.84;39.94;101897.31;5030535;28;20040;-50
2022/06/15 10:31:12;;;;;;;6.32;2.00;;;;;;;23.94;40.36;101900.72;5030757;28;20807;-55
2022/06/15 10:33:43;;;;;;;10.00;2.40;;;;;;;24.03;39.68;101903.28;5030479;28;20035;-50
2022/06/15 10:36:36;;;;;;;6.22;2.17;;;;;;;24.06;39.85;101897.97;5018596;28;20083;-54
2022/06/15 10:39:06;;;;;;;8.30;2.58;;;;;;;24.02;39.13;101894.50;5027129;28;20060;-54
2022/06/15 10:41:48;;;;;;;7.75;2.15;;;;;;;24.07;39.43;101891.81;5029175;28;20570;-55
2022/06/15 10:44:15;;;;;;;7.25;2.33;;;;;;;24.18;39.96;101895.19;5011713;28;20033;-49
2022/06/15 10:47:21;;;;;;;6.03;1.92;;;;;;;24.31;40.49;101893.28;5029962;28;20039;-51
2022/06/15 10:49:53;;;;;;;7.88;2.38;;;;;;;24.38;39.28;101889.72;5000818;28;20049;-51
2022/06/15 10:52:43;;;;;;;4.82;2.17;;;;;;;24.51;40.10;101888.69;5032759;28;20068;-49
2022/06/15 11:03:38;;;;;;;7.78;2.67;;;;;;;24.37;38.69;101885.34;5026290;28;20635;-53
2022/06/15 11:06:04;;;;;;;6.32;2.03;;;;;;;24.44;40.60;101884.38;5026574;28;20045;-52
2022/06/15 11:08:33;;;;;;;4.53;1.95;;;;;;;24.42;39.16;101885.31;5027405;28;20028;-53
2022/06/15 11:11:19;;;;;;;7.10;2.17;;;;;;;24.40;39.76;101880.06;5031929;28;20040;-52
2022/06/15 11:13:56;;;;;;;9.32;2.40;;;;;;;24.31;38.92;101885.41;5027436;28;20033;-52
2022/06/15 11:19:14;;;;;;;8.18;2.40;;;;;;;24.12;39.73;101870.75;5030922;28;20051;-51
2022/06/15 11:21:48;;;;;;;8.88;1.92;;;;;;;24.27;41.49;101873.22;5004871;28;20053;-52
2022/06/15 11:24:35;;;;;;;8.48;2.33;;;;;;;24.27;39.63;101873.22;5029506;28;20035;-52
2022/06/15 11:27:24;;;;;;;7.75;1.92;;;;;;;24.33;40.21;101875.75;5029448;28;20033;-51
2022/06/15 11:29:53;;;;;;;7.28;2.35;;;;;;;24.34;39.01;101867.00;5024200;28;20101;-51
2022/06/15 11:32:56;;;;;;;4.18;1.80;;;;;;;24.43;40.01;101868.63;5025002;28;20124;-48
2022/06/15 11:35:39;;;;;;;7.63;2.40;;;;;;;24.37;39.55;101866.09;5029899;28;20025;-52
2022/06/15 11:38:29;;;;;;;7.25;2.17;;;;;;;24.40;40.06;101866.94;5027948;28;21574;-51
2022/06/15 11:41:20;;;;;;;5.75;2.28;;;;;;;24.48;39.56;101879.97;5030321;28;20052;-51
2022/06/15 11:43:47;;;;;;;5.22;1.75;;;;;;;24.39;39.41;101870.44;4984357;28;20041;-57
2022/06/15 11:46:47;;;;;;;8.32;2.20;;;;;;;24.39;39.21;101874.81;5025365;28;20043;-50
2022/06/15 11:49:29;;;;;;;7.68;2.20;;;;;;;24.44;39.20;101870.38;5027631;28;20033;-55
2022/06/15 11:52:01;;;;;;;6.65;2.10;;;;;;;24.44;39.65;101876.50;5026055;28;20116;-57
2022/06/15 11:54:53;;;;;;;9.60;2.58;;;;;;;24.39;38.57;101870.44;5026760;28;20021;-51
2022/06/15 11:57:34;;;;;;;9.48;2.08;;;;;;;24.40;38.64;101866.94;5021586;28;20489;-56